createdAt,value
2016-12-30T00:00:21.697Z,1039.06
2016-12-30T00:00:47.365Z,1038.99
2016-12-30T00:01:12.938Z,1038.99
2016-12-30T00:01:38.547Z,1039.01
2016-12-30T00:02:04.167Z,1039.03
2016-12-30T00:02:29.743Z,1038.98
2016-12-30T00:02:55.322Z,1038.99
2016-12-30T00:03:20.943Z,1038.97
2016-12-30T00:03:46.514Z,1038.97
2016-12-30T00:04:12.065Z,1038.94
2016-12-30T00:05:20.933Z,1038.92
2016-12-30T00:05:46.504Z,1038.91
2016-12-30T00:06:12.049Z,1038.94
2016-12-30T00:06:37.611Z,1038.91
2016-12-30T00:07:03.286Z,1038.88
2016-12-30T00:07:28.875Z,1038.9
2016-12-30T00:07:54.450Z,1038.89
2016-12-30T00:08:20.017Z,1038.83
2016-12-30T00:08:45.607Z,1038.87
2016-12-30T00:09:11.181Z,1038.84
2016-12-30T00:09:36.787Z,1038.88
2016-12-30T00:10:02.369Z,1038.85
2016-12-30T00:10:27.932Z,1038.87
2016-12-30T00:10:53.482Z,1038.85
2016-12-30T00:11:19.060Z,1038.89
2016-12-30T00:11:44.617Z,1038.93
2016-12-30T00:12:10.177Z,1038.89
2016-12-30T00:12:35.772Z,1038.9
2016-12-30T00:13:01.316Z,1038.88
2016-12-30T00:13:26.883Z,1038.87
2016-12-30T00:13:52.501Z,1038.87
2016-12-30T00:14:18.109Z,1038.87
2016-12-30T00:14:43.651Z,1038.9
2016-12-30T00:15:09.211Z,1038.9
2016-12-30T00:15:34.874Z,1038.85
2016-12-30T00:16:00.508Z,1038.88
2016-12-30T00:16:26.065Z,1038.85
2016-12-30T00:16:51.743Z,1038.88
2016-12-30T00:17:17.302Z,1038.88
2016-12-30T00:17:42.864Z,1038.92
2016-12-30T00:18:08.507Z,1038.87
2016-12-30T00:18:34.097Z,1038.89
2016-12-30T00:18:59.658Z,1038.88
2016-12-30T00:19:25.207Z,1038.87
2016-12-30T00:19:50.839Z,1038.88
2016-12-30T00:20:16.407Z,1038.87
2016-12-30T00:20:41.964Z,1038.86
2016-12-30T00:21:07.570Z,1038.81
2016-12-30T00:21:33.151Z,1038.85
2016-12-30T00:21:58.717Z,1038.85
2016-12-30T00:22:24.296Z,1038.88
2016-12-30T00:22:49.871Z,1038.84
2016-12-30T00:23:15.442Z,1038.88
2016-12-30T00:23:41.033Z,1038.83
2016-12-30T00:24:06.613Z,1038.85
2016-12-30T00:24:32.164Z,1038.86
2016-12-30T00:24:57.752Z,1038.81
2016-12-30T00:25:23.345Z,1038.8
2016-12-30T00:25:48.903Z,1038.77
2016-12-30T00:26:14.470Z,1038.76
2016-12-30T00:26:40.044Z,1038.75
2016-12-30T00:27:05.623Z,1038.75
2016-12-30T00:27:31.218Z,1038.74
2016-12-30T00:27:56.774Z,1038.75
2016-12-30T00:28:22.346Z,1038.76
2016-12-30T00:28:47.934Z,1038.76
2016-12-30T00:29:13.602Z,1038.78
2016-12-30T00:29:39.165Z,1038.79
2016-12-30T00:30:04.767Z,1038.73
2016-12-30T00:30:30.436Z,1038.73
2016-12-30T00:30:56.007Z,1038.73
2016-12-30T00:31:21.618Z,1038.75
2016-12-30T00:31:47.209Z,1038.76
2016-12-30T00:32:12.811Z,1038.73
2016-12-30T00:32:38.378Z,1038.75
2016-12-30T00:33:04.084Z,1038.74
2016-12-30T00:33:29.647Z,1038.78
2016-12-30T00:33:55.259Z,1038.76
2016-12-30T00:34:20.852Z,1038.77
2016-12-30T00:34:46.429Z,1038.76
2016-12-30T00:35:11.988Z,1038.76
2016-12-30T00:35:37.562Z,1038.76
2016-12-30T00:36:03.264Z,1038.79
2016-12-30T00:36:28.852Z,1038.79
2016-12-30T00:36:54.404Z,1038.82
2016-12-30T00:37:19.965Z,1038.83
2016-12-30T00:37:45.703Z,1038.79
2016-12-30T00:38:11.253Z,1038.82
2016-12-30T00:38:36.902Z,1038.82
2016-12-30T00:39:02.480Z,1038.82
2016-12-30T00:39:28.053Z,1038.79
2016-12-30T00:39:53.709Z,1038.8
2016-12-30T00:40:19.319Z,1038.82
2016-12-30T00:40:44.901Z,1038.85
2016-12-30T00:41:10.471Z,1038.79
2016-12-30T00:41:36.095Z,1038.82
2016-12-30T00:42:01.661Z,1038.79
2016-12-30T00:42:27.215Z,1038.79
2016-12-30T00:42:52.868Z,1038.81
2016-12-30T00:43:18.437Z,1038.82
2016-12-30T00:43:44.040Z,1038.78
2016-12-30T00:44:09.591Z,1038.78
2016-12-30T00:44:35.247Z,1038.77
2016-12-30T00:45:00.842Z,1038.78
2016-12-30T00:45:26.396Z,1038.74
2016-12-30T00:45:51.997Z,1038.75
2016-12-30T00:46:17.592Z,1038.73
2016-12-30T00:46:43.145Z,1038.73
2016-12-30T00:47:08.713Z,1038.75
2016-12-30T00:47:34.293Z,1038.72
2016-12-30T00:47:59.863Z,1038.75
2016-12-30T00:48:25.440Z,1038.73
2016-12-30T00:48:50.988Z,1038.72
2016-12-30T00:49:16.558Z,1038.71
2016-12-30T00:49:42.143Z,1038.66
2016-12-30T00:50:07.717Z,1038.68
2016-12-30T00:50:33.285Z,1038.65
2016-12-30T00:50:58.845Z,1038.68
2016-12-30T00:51:24.419Z,1038.73
2016-12-30T00:51:50.000Z,1038.72
2016-12-30T00:52:15.615Z,1038.69
2016-12-30T00:52:41.159Z,1038.72
2016-12-30T00:53:06.885Z,1038.7
2016-12-30T00:53:32.484Z,1038.74
2016-12-30T00:53:58.070Z,1038.73
2016-12-30T00:54:23.707Z,1038.69
2016-12-30T00:54:49.260Z,1038.7
2016-12-30T00:55:14.810Z,1038.71
2016-12-30T00:55:40.391Z,1038.75
2016-12-30T00:56:06.013Z,1038.71
2016-12-30T00:56:31.586Z,1038.71
2016-12-30T00:56:57.149Z,1038.69
2016-12-30T00:57:22.832Z,1038.71
2016-12-30T00:57:48.405Z,1038.71
2016-12-30T00:58:13.967Z,1038.69
2016-12-30T00:58:39.528Z,1038.68
